sensor_id;sensor_type;location;lat;lon;timestamp;temperature;humidity
12893;DHT22;6514;48.606;9.222;2022-09-09T00:01:07;13.60;99.90
12893;DHT22;6514;48.606;9.222;2022-09-09T00:03:42;13.70;99.90
12893;DHT22;6514;48.606;9.222;2022-09-09T00:06:17;13.70;99.90
12893;DHT22;6514;48.606;9.222;2022-09-09T00:08:52;13.60;99.90
12893;DHT22;6514;48.606;9.222;2022-09-09T00:11:25;13.60;99.90
12893;DHT22;6514;48.606;9.222;2022-09-09T00:13:57;13.50;99.90
12893;DHT22;6514;48.606;9.222;2022-09-09T00:16:27;13.50;99.90
12893;DHT22;6514;48.606;9.222;2022-09-09T00:19:01;13.40;99.90
12893;DHT22;6514;48.606;9.222;2022-09-09T00:21:34;13.40;99.90
12893;DHT22;6514;48.606;9.222;2022-09-09T00:24:09;13.50;99.90
12893;DHT22;6514;48.606;9.222;2022-09-09T00:26:43;13.50;99.90
12893;DHT22;6514;48.606;9.222;2022-09-09T00:29:20;13.50;99.90
12893;DHT22;6514;48.606;9.222;2022-09-09T00:31:49;13.60;99.90
12893;DHT22;6514;48.606;9.222;2022-09-09T00:34:20;13.60;99.90
12893;DHT22;6514;48.606;9.222;2022-09-09T00:36:49;13.60;99.90
12893;DHT22;6514;48.606;9.222;2022-09-09T00:39:25;13.60;99.90
12893;DHT22;6514;48.606;9.222;2022-09-09T00:42:10;13.60;99.90
12893;DHT22;6514;48.606;9.222;2022-09-09T00:44:51;13.60;99.90
12893;DHT22;6514;48.606;9.222;2022-09-09T00:47:43;13.70;99.90
12893;DHT22;6514;48.606;9.222;2022-09-09T00:50:22;13.70;99.90
12893;DHT22;6514;48.606;9.222;2022-09-09T00:53:00;13.70;99.90
12893;DHT22;6514;48.606;9.222;2022-09-09T00:55:34;13.60;99.90
12893;DHT22;6514;48.606;9.222;2022-09-09T00:58:07;13.60;99.90
12893;DHT22;6514;48.606;9.222;2022-09-09T01:00:41;13.60;99.90
12893;DHT22;6514;48.606;9.222;2022-09-09T01:03:22;13.50;99.90
12893;DHT22;6514;48.606;9.222;2022-09-09T01:05:57;13.40;99.90
12893;DHT22;6514;48.606;9.222;2022-09-09T01:08:48;13.40;99.90
12893;DHT22;6514;48.606;9.222;2022-09-09T01:11:22;13.30;99.90
12893;DHT22;6514;48.606;9.222;2022-09-09T01:13:56;13.40;99.90
12893;DHT22;6514;48.606;9.222;2022-09-09T01:16:29;13.40;99.90
12893;DHT22;6514;48.606;9.222;2022-09-09T01:18:57;13.40;99.90
12893;DHT22;6514;48.606;9.222;2022-09-09T01:21:32;13.30;99.90
12893;DHT22;6514;48.606;9.222;2022-09-09T01:24:19;13.30;99.90
12893;DHT22;6514;48.606;9.222;2022-09-09T01:26:52;13.30;99.90
12893;DHT22;6514;48.606;9.222;2022-09-09T01:29:21;13.20;99.90
12893;DHT22;6514;48.606;9.222;2022-09-09T01:31:54;13.20;99.90
12893;DHT22;6514;48.606;9.222;2022-09-09T01:34:22;13.10;99.90
12893;DHT22;6514;48.606;9.222;2022-09-09T01:36:53;13.10;99.90
12893;DHT22;6514;48.606;9.222;2022-09-09T01:39:23;13.10;99.90
12893;DHT22;6514;48.606;9.222;2022-09-09T01:41:53;13.10;99.90
12893;DHT22;6514;48.606;9.222;2022-09-09T01:44:20;13.00;99.90
12893;DHT22;6514;48.606;9.222;2022-09-09T01:46:47;12.90;99.90
12893;DHT22;6514;48.606;9.222;2022-09-09T01:49:14;12.90;99.90
12893;DHT22;6514;48.606;9.222;2022-09-09T01:51:43;12.90;99.90
12893;DHT22;6514;48.606;9.222;2022-09-09T01:54:10;12.90;99.90
12893;DHT22;6514;48.606;9.222;2022-09-09T01:56:47;12.80;99.90
12893;DHT22;6514;48.606;9.222;2022-09-09T01:59:41;12.80;99.90
12893;DHT22;6514;48.606;9.222;2022-09-09T02:02:17;12.80;99.90
12893;DHT22;6514;48.606;9.222;2022-09-09T02:04:48;12.80;99.90
12893;DHT22;6514;48.606;9.222;2022-09-09T02:07:28;12.80;99.90
12893;DHT22;6514;48.606;9.222;2022-09-09T02:10:02;12.80;99.90
12893;DHT22;6514;48.606;9.222;2022-09-09T02:12:32;12.70;99.90
12893;DHT22;6514;48.606;9.222;2022-09-09T02:15:03;12.80;99.90
12893;DHT22;6514;48.606;9.222;2022-09-09T02:17:34;12.80;99.90
12893;DHT22;6514;48.606;9.222;2022-09-09T02:20:06;12.80;99.90
12893;DHT22;6514;48.606;9.222;2022-09-09T02:22:35;12.80;99.90
12893;DHT22;6514;48.606;9.222;2022-09-09T02:25:07;12.80;99.90
12893;DHT22;6514;48.606;9.222;2022-09-09T02:27:35;12.80;99.90
12893;DHT22;6514;48.606;9.222;2022-09-09T02:30:05;12.80;99.90
12893;DHT22;6514;48.606;9.222;2022-09-09T02:32:34;12.70;99.90
12893;DHT22;6514;48.606;9.222;2022-09-09T02:35:05;12.70;99.90
12893;DHT22;6514;48.606;9.222;2022-09-09T02:37:37;12.60;99.90
12893;DHT22;6514;48.606;9.222;2022-09-09T02:40:05;12.60;99.90
12893;DHT22;6514;48.606;9.222;2022-09-09T02:42:38;12.60;99.90
12893;DHT22;6514;48.606;9.222;2022-09-09T02:45:08;12.60;99.90
12893;DHT22;6514;48.606;9.222;2022-09-09T02:47:37;12.50;99.90
12893;DHT22;6514;48.606;9.222;2022-09-09T02:50:11;12.50;99.90
12893;DHT22;6514;48.606;9.222;2022-09-09T02:52:47;12.50;99.90
12893;DHT22;6514;48.606;9.222;2022-09-09T02:55:20;12.50;99.90
12893;DHT22;6514;48.606;9.222;2022-09-09T02:57:51;12.50;99.90
12893;DHT22;6514;48.606;9.222;2022-09-09T03:00:24;12.50;99.90
12893;DHT22;6514;48.606;9.222;2022-09-09T03:02:51;12.40;99.90
12893;DHT22;6514;48.606;9.222;2022-09-09T03:05:19;12.40;99.90
12893;DHT22;6514;48.606;9.222;2022-09-09T03:07:46;12.40;99.90
12893;DHT22;6514;48.606;9.222;2022-09-09T03:10:15;12.40;99.90
12893;DHT22;6514;48.606;9.222;2022-09-09T03:12:42;12.50;99.90
12893;DHT22;6514;48.606;9.222;2022-09-09T03:15:09;12.50;99.90
12893;DHT22;6514;48.606;9.222;2022-09-09T03:17:38;12.40;99.90
12893;DHT22;6514;48.606;9.222;2022-09-09T03:20:06;12.40;99.90
12893;DHT22;6514;48.606;9.222;2022-09-09T03:22:34;12.30;99.90
12893;DHT22;6514;48.606;9.222;2022-09-09T03:25:01;12.30;99.90
12893;DHT22;6514;48.606;9.222;2022-09-09T03:27:28;12.30;99.90
12893;DHT22;6514;48.606;9.222;2022-09-09T03:29:55;12.30;99.90
12893;DHT22;6514;48.606;9.222;2022-09-09T03:32:23;12.30;99.90
12893;DHT22;6514;48.606;9.222;2022-09-09T03:34:52;12.30;99.90
12893;DHT22;6514;48.606;9.222;2022-09-09T03:37:19;12.40;99.90
12893;DHT22;6514;48.606;9.222;2022-09-09T03:39:46;12.40;99.90
12893;DHT22;6514;48.606;9.222;2022-09-09T03:42:14;12.60;99.90
12893;DHT22;6514;48.606;9.222;2022-09-09T03:44:44;12.60;99.90
12893;DHT22;6514;48.606;9.222;2022-09-09T03:47:16;12.60;99.90
12893;DHT22;6514;48.606;9.222;2022-09-09T03:49:43;12.60;99.90
12893;DHT22;6514;48.606;9.222;2022-09-09T03:52:12;12.50;99.90
12893;DHT22;6514;48.606;9.222;2022-09-09T03:54:39;12.60;99.90
12893;DHT22;6514;48.606;9.222;2022-09-09T03:57:08;12.50;99.90
12893;DHT22;6514;48.606;9.222;2022-09-09T03:59:35;12.50;99.90
12893;DHT22;6514;48.606;9.222;2022-09-09T04:02:02;12.50;99.90
12893;DHT22;6514;48.606;9.222;2022-09-09T04:04:29;12.50;99.90
12893;DHT22;6514;48.606;9.222;2022-09-09T04:06:56;12.40;99.90
12893;DHT22;6514;48.606;9.222;2022-09-09T04:09:24;12.40;99.90
12893;DHT22;6514;48.606;9.222;2022-09-09T04:11:51;12.50;99.90
12893;DHT22;6514;48.606;9.222;2022-09-09T04:14:19;12.40;99.90
12893;DHT22;6514;48.606;9.222;2022-09-09T04:16:46;12.40;99.90
12893;DHT22;6514;48.606;9.222;2022-09-09T04:19:13;12.40;99.90
12893;DHT22;6514;48.606;9.222;2022-09-09T04:21:41;12.40;99.90
12893;DHT22;6514;48.606;9.222;2022-09-09T04:24:08;12.40;99.90
12893;DHT22;6514;48.606;9.222;2022-09-09T04:26:37;12.40;99.90
12893;DHT22;6514;48.606;9.222;2022-09-09T04:29:04;12.30;99.90
12893;DHT22;6514;48.606;9.222;2022-09-09T04:31:33;12.30;99.90
12893;DHT22;6514;48.606;9.222;2022-09-09T04:34:00;12.30;99.90
12893;DHT22;6514;48.606;9.222;2022-09-09T04:36:31;12.20;99.90
12893;DHT22;6514;48.606;9.222;2022-09-09T04:41:26;12.30;99.90
12893;DHT22;6514;48.606;9.222;2022-09-09T04:43:54;12.40;99.90
12893;DHT22;6514;48.606;9.222;2022-09-09T04:46:22;12.40;99.90
12893;DHT22;6514;48.606;9.222;2022-09-09T04:48:49;12.60;99.90
12893;DHT22;6514;48.606;9.222;2022-09-09T04:51:16;12.70;99.90
12893;DHT22;6514;48.606;9.222;2022-09-09T04:53:43;12.80;99.90
12893;DHT22;6514;48.606;9.222;2022-09-09T04:56:13;12.90;99.90
12893;DHT22;6514;48.606;9.222;2022-09-09T04:58:41;13.00;99.90
12893;DHT22;6514;48.606;9.222;2022-09-09T05:01:11;13.10;99.90
12893;DHT22;6514;48.606;9.222;2022-09-09T05:03:39;13.20;99.90
12893;DHT22;6514;48.606;9.222;2022-09-09T05:06:07;13.20;99.90
12893;DHT22;6514;48.606;9.222;2022-09-09T05:08:35;13.30;99.90
12893;DHT22;6514;48.606;9.222;2022-09-09T05:11:03;13.30;99.90
12893;DHT22;6514;48.606;9.222;2022-09-09T05:13:30;13.30;99.90
12893;DHT22;6514;48.606;9.222;2022-09-09T05:15:58;13.30;99.90
12893;DHT22;6514;48.606;9.222;2022-09-09T05:18:26;13.30;99.90
12893;DHT22;6514;48.606;9.222;2022-09-09T05:20:58;13.30;99.90
12893;DHT22;6514;48.606;9.222;2022-09-09T05:23:25;13.40;99.90
12893;DHT22;6514;48.606;9.222;2022-09-09T05:25:56;13.50;99.90
12893;DHT22;6514;48.606;9.222;2022-09-09T05:28:24;13.50;99.90
12893;DHT22;6514;48.606;9.222;2022-09-09T05:30:58;13.60;99.90
12893;DHT22;6514;48.606;9.222;2022-09-09T05:33:28;13.70;99.90
12893;DHT22;6514;48.606;9.222;2022-09-09T05:35:56;13.70;99.90
12893;DHT22;6514;48.606;9.222;2022-09-09T05:38:23;13.80;99.90
12893;DHT22;6514;48.606;9.222;2022-09-09T05:40:51;13.90;99.90
12893;DHT22;6514;48.606;9.222;2022-09-09T05:43:18;14.00;99.90
12893;DHT22;6514;48.606;9.222;2022-09-09T05:45:46;14.10;99.90
12893;DHT22;6514;48.606;9.222;2022-09-09T05:48:14;14.10;99.90
12893;DHT22;6514;48.606;9.222;2022-09-09T05:50:43;14.20;99.90
12893;DHT22;6514;48.606;9.222;2022-09-09T05:53:10;14.30;99.90
12893;DHT22;6514;48.606;9.222;2022-09-09T05:55:37;14.40;99.90
12893;DHT22;6514;48.606;9.222;2022-09-09T05:58:04;14.40;99.90
12893;DHT22;6514;48.606;9.222;2022-09-09T06:00:31;14.50;99.90
12893;DHT22;6514;48.606;9.222;2022-09-09T06:02:58;14.60;99.90
12893;DHT22;6514;48.606;9.222;2022-09-09T06:05:25;14.60;99.90
12893;DHT22;6514;48.606;9.222;2022-09-09T06:07:55;14.80;99.90
12893;DHT22;6514;48.606;9.222;2022-09-09T06:10:22;14.70;99.90
12893;DHT22;6514;48.606;9.222;2022-09-09T06:12:52;14.90;99.90
12893;DHT22;6514;48.606;9.222;2022-09-09T06:15:20;15.00;99.90
12893;DHT22;6514;48.606;9.222;2022-09-09T06:17:47;15.10;99.90
12893;DHT22;6514;48.606;9.222;2022-09-09T06:20:15;15.20;99.90
12893;DHT22;6514;48.606;9.222;2022-09-09T06:22:42;15.40;99.90
12893;DHT22;6514;48.606;9.222;2022-09-09T06:25:13;15.40;99.90
12893;DHT22;6514;48.606;9.222;2022-09-09T06:27:40;15.50;99.90
12893;DHT22;6514;48.606;9.222;2022-09-09T06:30:09;15.50;99.90
12893;DHT22;6514;48.606;9.222;2022-09-09T06:32:36;15.60;99.90
12893;DHT22;6514;48.606;9.222;2022-09-09T06:35:04;15.80;99.90
12893;DHT22;6514;48.606;9.222;2022-09-09T06:37:31;15.90;99.90
12893;DHT22;6514;48.606;9.222;2022-09-09T06:39:58;16.00;99.90
12893;DHT22;6514;48.606;9.222;2022-09-09T06:42:26;16.20;99.90
12893;DHT22;6514;48.606;9.222;2022-09-09T06:44:53;16.30;99.90
12893;DHT22;6514;48.606;9.222;2022-09-09T06:47:20;16.40;99.90
12893;DHT22;6514;48.606;9.222;2022-09-09T06:49:47;16.50;99.90
12893;DHT22;6514;48.606;9.222;2022-09-09T06:52:14;16.60;99.90
12893;DHT22;6514;48.606;9.222;2022-09-09T06:54:40;16.70;99.90
12893;DHT22;6514;48.606;9.222;2022-09-09T06:57:07;16.90;99.90
12893;DHT22;6514;48.606;9.222;2022-09-09T06:59:36;17.10;99.90
12893;DHT22;6514;48.606;9.222;2022-09-09T07:02:02;17.20;99.90
12893;DHT22;6514;48.606;9.222;2022-09-09T07:04:29;17.50;99.90
12893;DHT22;6514;48.606;9.222;2022-09-09T07:06:56;17.70;99.90
12893;DHT22;6514;48.606;9.222;2022-09-09T07:09:24;17.80;99.90
12893;DHT22;6514;48.606;9.222;2022-09-09T07:11:53;18.00;99.90
12893;DHT22;6514;48.606;9.222;2022-09-09T07:14:20;18.10;99.90
12893;DHT22;6514;48.606;9.222;2022-09-09T07:16:48;18.30;99.90
12893;DHT22;6514;48.606;9.222;2022-09-09T07:19:15;18.70;99.90
12893;DHT22;6514;48.606;9.222;2022-09-09T07:21:42;19.00;99.90
12893;DHT22;6514;48.606;9.222;2022-09-09T07:24:10;19.40;99.90
12893;DHT22;6514;48.606;9.222;2022-09-09T07:26:38;19.80;99.90
12893;DHT22;6514;48.606;9.222;2022-09-09T07:29:06;19.80;99.90
12893;DHT22;6514;48.606;9.222;2022-09-09T07:31:34;19.80;99.90
12893;DHT22;6514;48.606;9.222;2022-09-09T07:34:04;19.80;99.90
12893;DHT22;6514;48.606;9.222;2022-09-09T07:36:33;19.90;99.90
12893;DHT22;6514;48.606;9.222;2022-09-09T07:39:01;19.80;99.90
12893;DHT22;6514;48.606;9.222;2022-09-09T07:41:31;19.80;99.90
12893;DHT22;6514;48.606;9.222;2022-09-09T07:44:03;19.60;99.90
12893;DHT22;6514;48.606;9.222;2022-09-09T07:46:30;19.50;99.90
12893;DHT22;6514;48.606;9.222;2022-09-09T07:48:57;19.30;99.90
12893;DHT22;6514;48.606;9.222;2022-09-09T07:51:27;19.50;99.90
12893;DHT22;6514;48.606;9.222;2022-09-09T07:53:57;19.70;99.90
12893;DHT22;6514;48.606;9.222;2022-09-09T07:56:26;19.70;99.90
12893;DHT22;6514;48.606;9.222;2022-09-09T07:58:55;19.80;99.90
12893;DHT22;6514;48.606;9.222;2022-09-09T08:01:24;19.90;99.90
12893;DHT22;6514;48.606;9.222;2022-09-09T08:03:56;19.80;99.90
12893;DHT22;6514;48.606;9.222;2022-09-09T08:06:27;20.00;99.90
12893;DHT22;6514;48.606;9.222;2022-09-09T08:08:54;20.10;99.90
12893;DHT22;6514;48.606;9.222;2022-09-09T08:11:23;20.30;99.90
12893;DHT22;6514;48.606;9.222;2022-09-09T08:13:50;20.40;99.90
12893;DHT22;6514;48.606;9.222;2022-09-09T08:16:20;20.50;99.90
12893;DHT22;6514;48.606;9.222;2022-09-09T08:18:48;20.50;99.90
12893;DHT22;6514;48.606;9.222;2022-09-09T08:21:17;20.80;99.90
12893;DHT22;6514;48.606;9.222;2022-09-09T08:23:46;20.70;99.90
12893;DHT22;6514;48.606;9.222;2022-09-09T08:26:15;20.50;99.90
12893;DHT22;6514;48.606;9.222;2022-09-09T08:28:42;20.30;99.90
12893;DHT22;6514;48.606;9.222;2022-09-09T08:31:12;20.20;99.90
12893;DHT22;6514;48.606;9.222;2022-09-09T08:33:40;20.10;99.90
12893;DHT22;6514;48.606;9.222;2022-09-09T08:36:09;20.20;99.90
12893;DHT22;6514;48.606;9.222;2022-09-09T08:38:37;20.70;99.90
12893;DHT22;6514;48.606;9.222;2022-09-09T08:41:16;21.10;99.90
12893;DHT22;6514;48.606;9.222;2022-09-09T08:43:47;21.30;99.90
12893;DHT22;6514;48.606;9.222;2022-09-09T08:46:21;21.60;99.90
12893;DHT22;6514;48.606;9.222;2022-09-09T08:48:56;21.70;99.90
12893;DHT22;6514;48.606;9.222;2022-09-09T08:51:27;22.10;99.90
12893;DHT22;6514;48.606;9.222;2022-09-09T08:53:55;22.20;99.90
12893;DHT22;6514;48.606;9.222;2022-09-09T08:56:27;22.30;99.90
12893;DHT22;6514;48.606;9.222;2022-09-09T08:58:56;22.50;99.90
12893;DHT22;6514;48.606;9.222;2022-09-09T09:01:35;22.30;99.90
12893;DHT22;6514;48.606;9.222;2022-09-09T09:04:10;22.20;99.90
12893;DHT22;6514;48.606;9.222;2022-09-09T09:06:50;22.20;99.90
12893;DHT22;6514;48.606;9.222;2022-09-09T09:09:24;22.00;99.90
12893;DHT22;6514;48.606;9.222;2022-09-09T09:11:57;21.70;99.90
12893;DHT22;6514;48.606;9.222;2022-09-09T09:14:28;21.50;99.90
12893;DHT22;6514;48.606;9.222;2022-09-09T09:16:58;21.60;99.90
12893;DHT22;6514;48.606;9.222;2022-09-09T09:19:27;22.20;99.90
12893;DHT22;6514;48.606;9.222;2022-09-09T09:22:00;22.90;99.90
12893;DHT22;6514;48.606;9.222;2022-09-09T09:24:36;23.70;99.90
12893;DHT22;6514;48.606;9.222;2022-09-09T09:27:12;24.30;99.90
12893;DHT22;6514;48.606;9.222;2022-09-09T09:29:40;24.80;99.90
12893;DHT22;6514;48.606;9.222;2022-09-09T09:32:14;25.10;99.90
12893;DHT22;6514;48.606;9.222;2022-09-09T09:34:48;25.30;99.90
12893;DHT22;6514;48.606;9.222;2022-09-09T09:37:20;25.80;99.90
12893;DHT22;6514;48.606;9.222;2022-09-09T09:39:50;26.20;99.90
12893;DHT22;6514;48.606;9.222;2022-09-09T09:42:19;26.30;99.90
12893;DHT22;6514;48.606;9.222;2022-09-09T09:44:46;26.60;99.90
12893;DHT22;6514;48.606;9.222;2022-09-09T09:47:14;27.00;99.90
12893;DHT22;6514;48.606;9.222;2022-09-09T09:49:51;27.00;99.90
12893;DHT22;6514;48.606;9.222;2022-09-09T09:52:21;26.90;99.90
12893;DHT22;6514;48.606;9.222;2022-09-09T09:54:50;26.70;99.90
12893;DHT22;6514;48.606;9.222;2022-09-09T09:57:24;27.10;99.90
12893;DHT22;6514;48.606;9.222;2022-09-09T10:00:02;27.20;99.90
12893;DHT22;6514;48.606;9.222;2022-09-09T10:02:38;27.20;99.90
12893;DHT22;6514;48.606;9.222;2022-09-09T10:05:13;27.30;99.90
12893;DHT22;6514;48.606;9.222;2022-09-09T10:07:40;27.10;99.90
12893;DHT22;6514;48.606;9.222;2022-09-09T10:10:13;27.20;99.90
12893;DHT22;6514;48.606;9.222;2022-09-09T10:12:53;27.20;99.90
12893;DHT22;6514;48.606;9.222;2022-09-09T10:15:37;27.40;99.90
12893;DHT22;6514;48.606;9.222;2022-09-09T10:18:21;27.40;99.90
12893;DHT22;6514;48.606;9.222;2022-09-09T10:20:55;27.50;99.90
12893;DHT22;6514;48.606;9.222;2022-09-09T10:23:39;27.70;99.90
12893;DHT22;6514;48.606;9.222;2022-09-09T10:26:19;27.80;99.90
12893;DHT22;6514;48.606;9.222;2022-09-09T10:29:12;28.20;99.90
12893;DHT22;6514;48.606;9.222;2022-09-09T10:31:49;28.40;99.90
12893;DHT22;6514;48.606;9.222;2022-09-09T10:34:32;28.50;99.90
12893;DHT22;6514;48.606;9.222;2022-09-09T10:37:14;28.40;99.90
12893;DHT22;6514;48.606;9.222;2022-09-09T10:39:53;29.00;99.90
12893;DHT22;6514;48.606;9.222;2022-09-09T10:42:27;29.40;99.90
12893;DHT22;6514;48.606;9.222;2022-09-09T10:45:06;29.40;99.90
12893;DHT22;6514;48.606;9.222;2022-09-09T10:47:57;29.60;99.90
12893;DHT22;6514;48.606;9.222;2022-09-09T10:50:36;30.10;99.90
12893;DHT22;6514;48.606;9.222;2022-09-09T10:53:14;30.10;99.90
12893;DHT22;6514;48.606;9.222;2022-09-09T10:55:48;29.00;99.90
12893;DHT22;6514;48.606;9.222;2022-09-09T10:58:22;28.20;99.90
12893;DHT22;6514;48.606;9.222;2022-09-09T11:00:54;27.70;99.90
12893;DHT22;6514;48.606;9.222;2022-09-09T11:03:25;27.90;99.90
12893;DHT22;6514;48.606;9.222;2022-09-09T11:05:55;28.70;99.90
12893;DHT22;6514;48.606;9.222;2022-09-09T11:08:26;29.00;99.90
12893;DHT22;6514;48.606;9.222;2022-09-09T11:10:58;29.20;99.90
12893;DHT22;6514;48.606;9.222;2022-09-09T11:13:35;28.80;99.90
12893;DHT22;6514;48.606;9.222;2022-09-09T11:16:19;27.90;99.90
12893;DHT22;6514;48.606;9.222;2022-09-09T11:18:47;26.70;99.90
12893;DHT22;6514;48.606;9.222;2022-09-09T11:21:19;25.80;99.90
12893;DHT22;6514;48.606;9.222;2022-09-09T11:23:52;24.80;99.90
12893;DHT22;6514;48.606;9.222;2022-09-09T11:26:28;24.20;99.90
12893;DHT22;6514;48.606;9.222;2022-09-09T11:29:06;23.60;99.90
12893;DHT22;6514;48.606;9.222;2022-09-09T11:31:45;22.80;99.90
12893;DHT22;6514;48.606;9.222;2022-09-09T11:34:24;21.90;99.90
12893;DHT22;6514;48.606;9.222;2022-09-09T11:37:14;21.00;99.90
12893;DHT22;6514;48.606;9.222;2022-09-09T11:40:14;20.50;99.90
12893;DHT22;6514;48.606;9.222;2022-09-09T11:42:43;20.50;99.90
12893;DHT22;6514;48.606;9.222;2022-09-09T11:45:19;20.60;99.90
12893;DHT22;6514;48.606;9.222;2022-09-09T11:47:53;20.70;99.90
12893;DHT22;6514;48.606;9.222;2022-09-09T11:50:38;21.00;99.90
12893;DHT22;6514;48.606;9.222;2022-09-09T11:53:21;21.50;99.90
12893;DHT22;6514;48.606;9.222;2022-09-09T11:56:01;21.90;99.90
12893;DHT22;6514;48.606;9.222;2022-09-09T11:58:34;22.00;99.90
12893;DHT22;6514;48.606;9.222;2022-09-09T12:01:24;22.50;99.90
12893;DHT22;6514;48.606;9.222;2022-09-09T12:04:01;23.50;99.90
12893;DHT22;6514;48.606;9.222;2022-09-09T12:06:33;24.50;99.90
12893;DHT22;6514;48.606;9.222;2022-09-09T12:09:13;25.10;99.90
12893;DHT22;6514;48.606;9.222;2022-09-09T12:11:42;25.90;99.90
12893;DHT22;6514;48.606;9.222;2022-09-09T12:14:20;26.50;99.90
12893;DHT22;6514;48.606;9.222;2022-09-09T12:16:48;26.70;99.90
12893;DHT22;6514;48.606;9.222;2022-09-09T12:19:19;26.90;99.90
12893;DHT22;6514;48.606;9.222;2022-09-09T12:21:54;26.90;99.90
12893;DHT22;6514;48.606;9.222;2022-09-09T12:24:29;27.10;99.90
12893;DHT22;6514;48.606;9.222;2022-09-09T12:27:03;27.30;99.90
12893;DHT22;6514;48.606;9.222;2022-09-09T12:29:46;27.00;99.90
12893;DHT22;6514;48.606;9.222;2022-09-09T12:32:20;26.80;99.90
12893;DHT22;6514;48.606;9.222;2022-09-09T12:34:53;26.70;99.90
12893;DHT22;6514;48.606;9.222;2022-09-09T12:37:27;26.60;99.90
12893;DHT22;6514;48.606;9.222;2022-09-09T12:39:56;26.20;99.90
12893;DHT22;6514;48.606;9.222;2022-09-09T12:42:25;26.20;99.90
12893;DHT22;6514;48.606;9.222;2022-09-09T12:44:57;26.40;99.90
12893;DHT22;6514;48.606;9.222;2022-09-09T12:47:31;26.60;99.90
12893;DHT22;6514;48.606;9.222;2022-09-09T12:50:03;26.90;99.90
12893;DHT22;6514;48.606;9.222;2022-09-09T12:52:32;27.20;99.90
12893;DHT22;6514;48.606;9.222;2022-09-09T12:55:01;27.30;99.90
12893;DHT22;6514;48.606;9.222;2022-09-09T12:57:34;27.20;99.90
12893;DHT22;6514;48.606;9.222;2022-09-09T13:00:07;27.10;99.90
12893;DHT22;6514;48.606;9.222;2022-09-09T13:02:46;27.20;99.90
12893;DHT22;6514;48.606;9.222;2022-09-09T13:05:17;26.70;99.90
12893;DHT22;6514;48.606;9.222;2022-09-09T13:07:44;25.90;99.90
12893;DHT22;6514;48.606;9.222;2022-09-09T13:10:14;25.10;99.90
12893;DHT22;6514;48.606;9.222;2022-09-09T13:12:42;24.40;99.90
12893;DHT22;6514;48.606;9.222;2022-09-09T13:15:19;24.00;99.90
12893;DHT22;6514;48.606;9.222;2022-09-09T13:17:53;23.60;99.90
12893;DHT22;6514;48.606;9.222;2022-09-09T13:20:22;23.40;99.90
12893;DHT22;6514;48.606;9.222;2022-09-09T13:22:51;23.60;99.90
12893;DHT22;6514;48.606;9.222;2022-09-09T13:25:22;24.30;99.90
12893;DHT22;6514;48.606;9.222;2022-09-09T13:27:58;24.90;99.90
12893;DHT22;6514;48.606;9.222;2022-09-09T13:30:27;25.70;99.90
12893;DHT22;6514;48.606;9.222;2022-09-09T13:33:06;25.90;99.90
12893;DHT22;6514;48.606;9.222;2022-09-09T13:35:49;26.10;99.90
12893;DHT22;6514;48.606;9.222;2022-09-09T13:38:16;26.20;99.90
12893;DHT22;6514;48.606;9.222;2022-09-09T13:40:52;26.30;99.90
12893;DHT22;6514;48.606;9.222;2022-09-09T13:43:22;25.90;99.90
12893;DHT22;6514;48.606;9.222;2022-09-09T13:45:53;25.70;99.90
12893;DHT22;6514;48.606;9.222;2022-09-09T13:48:21;26.00;99.90
12893;DHT22;6514;48.606;9.222;2022-09-09T13:50:59;26.00;99.90
12893;DHT22;6514;48.606;9.222;2022-09-09T13:53:26;26.10;99.90
12893;DHT22;6514;48.606;9.222;2022-09-09T13:55:54;26.00;99.90
12893;DHT22;6514;48.606;9.222;2022-09-09T13:58:22;25.70;99.90
12893;DHT22;6514;48.606;9.222;2022-09-09T14:00:51;25.50;99.90
12893;DHT22;6514;48.606;9.222;2022-09-09T14:03:18;25.40;99.90
12893;DHT22;6514;48.606;9.222;2022-09-09T14:05:45;25.50;99.90
12893;DHT22;6514;48.606;9.222;2022-09-09T14:08:20;25.60;99.90
12893;DHT22;6514;48.606;9.222;2022-09-09T14:10:48;25.50;99.90
12893;DHT22;6514;48.606;9.222;2022-09-09T14:13:15;25.50;99.90
12893;DHT22;6514;48.606;9.222;2022-09-09T14:15:42;25.50;99.90
12893;DHT22;6514;48.606;9.222;2022-09-09T14:18:11;25.60;99.90
12893;DHT22;6514;48.606;9.222;2022-09-09T14:20:39;25.50;99.90
12893;DHT22;6514;48.606;9.222;2022-09-09T14:23:07;25.50;99.90
12893;DHT22;6514;48.606;9.222;2022-09-09T14:25:39;25.70;99.90
12893;DHT22;6514;48.606;9.222;2022-09-09T14:28:08;25.90;99.90
12893;DHT22;6514;48.606;9.222;2022-09-09T14:30:37;25.90;99.90
12893;DHT22;6514;48.606;9.222;2022-09-09T14:33:05;26.10;99.90
12893;DHT22;6514;48.606;9.222;2022-09-09T14:35:32;25.90;99.90
12893;DHT22;6514;48.606;9.222;2022-09-09T14:37:59;25.60;99.90
12893;DHT22;6514;48.606;9.222;2022-09-09T14:40:28;24.80;99.90
12893;DHT22;6514;48.606;9.222;2022-09-09T14:42:57;24.10;99.90
12893;DHT22;6514;48.606;9.222;2022-09-09T14:45:24;23.50;99.90
12893;DHT22;6514;48.606;9.222;2022-09-09T14:47:51;22.90;99.90
12893;DHT22;6514;48.606;9.222;2022-09-09T14:50:19;22.50;99.90
12893;DHT22;6514;48.606;9.222;2022-09-09T14:52:46;22.30;99.90
12893;DHT22;6514;48.606;9.222;2022-09-09T14:55:13;22.60;99.90
12893;DHT22;6514;48.606;9.222;2022-09-09T14:57:41;23.30;99.90
12893;DHT22;6514;48.606;9.222;2022-09-09T15:00:10;23.80;99.90
12893;DHT22;6514;48.606;9.222;2022-09-09T15:02:37;24.40;99.90
12893;DHT22;6514;48.606;9.222;2022-09-09T15:05:05;24.70;99.90
12893;DHT22;6514;48.606;9.222;2022-09-09T15:07:32;24.60;99.90
12893;DHT22;6514;48.606;9.222;2022-09-09T15:09:59;24.60;99.90
12893;DHT22;6514;48.606;9.222;2022-09-09T15:12:26;24.70;99.90
12893;DHT22;6514;48.606;9.222;2022-09-09T15:14:54;24.90;99.90
12893;DHT22;6514;48.606;9.222;2022-09-09T15:17:22;25.00;99.90
12893;DHT22;6514;48.606;9.222;2022-09-09T15:19:53;25.00;99.90
12893;DHT22;6514;48.606;9.222;2022-09-09T15:22:20;24.50;99.90
12893;DHT22;6514;48.606;9.222;2022-09-09T15:24:47;23.90;99.90
12893;DHT22;6514;48.606;9.222;2022-09-09T15:27:14;23.80;99.90
12893;DHT22;6514;48.606;9.222;2022-09-09T15:29:41;23.80;99.90
12893;DHT22;6514;48.606;9.222;2022-09-09T15:32:09;23.60;99.90
12893;DHT22;6514;48.606;9.222;2022-09-09T15:34:37;23.40;99.90
12893;DHT22;6514;48.606;9.222;2022-09-09T15:37:05;23.40;99.90
12893;DHT22;6514;48.606;9.222;2022-09-09T15:39:32;23.50;99.90
12893;DHT22;6514;48.606;9.222;2022-09-09T15:41:59;23.40;99.90
12893;DHT22;6514;48.606;9.222;2022-09-09T15:44:27;23.20;99.90
12893;DHT22;6514;48.606;9.222;2022-09-09T15:46:54;22.70;99.90
12893;DHT22;6514;48.606;9.222;2022-09-09T15:49:23;22.20;99.90
12893;DHT22;6514;48.606;9.222;2022-09-09T15:51:53;22.00;99.90
12893;DHT22;6514;48.606;9.222;2022-09-09T15:54:21;21.70;99.90
12893;DHT22;6514;48.606;9.222;2022-09-09T15:56:51;21.40;99.90
12893;DHT22;6514;48.606;9.222;2022-09-09T15:59:20;21.10;99.90
12893;DHT22;6514;48.606;9.222;2022-09-09T16:01:47;20.90;99.90
12893;DHT22;6514;48.606;9.222;2022-09-09T16:04:17;20.70;99.90
12893;DHT22;6514;48.606;9.222;2022-09-09T16:06:49;20.40;99.90
12893;DHT22;6514;48.606;9.222;2022-09-09T16:09:18;20.30;99.90
12893;DHT22;6514;48.606;9.222;2022-09-09T16:11:45;20.10;99.90